Time;durP1;ratioP1;P1;durP2;ratioP2;P2;SDS_P1;SDS_P2;PMS_P1;PMS_P2;Temp;Humidity;BMP_temperature;BMP_pressure;BME280_temperature;BME280_humidity;BME280_pressure;Samples;Min_cycle;Max_cycle;Signal;HPM_P1;HPM_P2
2021/05/07 00:02:06;;;;;;;6.25;2.38;;;4.50;99.90;;;;;;5091554;28;20031;-41
2021/05/07 00:04:31;;;;;;;3.42;2.08;;;4.50;99.90;;;;;;5091327;28;20058;-41
2021/05/07 00:06:57;;;;;;;3.20;2.25;;;4.50;99.90;;;;;;5091712;28;20028;-43
2021/05/07 00:09:23;;;;;;;3.42;2.33;;;4.50;99.90;;;;;;5087148;28;20444;-42
2021/05/07 00:11:48;;;;;;;3.50;2.30;;;4.50;99.90;;;;;;5070257;28;20639;-42
2021/05/07 00:14:14;;;;;;;2.85;2.33;;;4.50;99.90;;;;;;5071119;28;20024;-41
2021/05/07 00:16:40;;;;;;;4.20;2.38;;;4.50;99.90;;;;;;5071419;28;20025;-41
2021/05/07 00:19:06;;;;;;;4.13;2.33;;;4.50;99.90;;;;;;5070814;28;20353;-42
2021/05/07 00:21:33;;;;;;;3.92;2.45;;;4.50;99.90;;;;;;5071395;28;20070;-42
2021/05/07 00:23:59;;;;;;;2.53;2.25;;;4.50;99.90;;;;;;5071064;28;20024;-40
2021/05/07 00:26:25;;;;;;;3.70;2.40;;;4.50;99.90;;;;;;5070023;28;20028;-42
2021/05/07 00:28:50;;;;;;;3.13;2.38;;;4.50;99.90;;;;;;5070801;28;20450;-41
2021/05/07 00:31:17;;;;;;;2.40;1.92;;;4.40;99.90;;;;;;5071010;28;20032;-41
2021/05/07 00:33:42;;;;;;;4.10;2.97;;;4.40;99.90;;;;;;5070681;28;20086;-42
2021/05/07 00:36:08;;;;;;;3.42;2.10;;;4.40;99.90;;;;;;5071000;28;20476;-41
2021/05/07 00:38:34;;;;;;;2.38;1.88;;;4.40;99.90;;;;;;5070589;28;20054;-41
2021/05/07 00:40:59;;;;;;;2.67;2.00;;;4.50;99.90;;;;;;5070028;28;20047;-42
2021/05/07 00:43:25;;;;;;;2.38;1.85;;;4.40;99.90;;;;;;5070658;28;20045;-42
2021/05/07 00:45:51;;;;;;;2.97;2.20;;;4.40;99.90;;;;;;5070868;28;20035;-41
2021/05/07 00:48:17;;;;;;;3.40;2.72;;;4.40;99.90;;;;;;5070394;28;20410;-41
2021/05/07 00:50:45;;;;;;;3.45;2.03;;;4.40;99.90;;;;;;5070837;28;20476;-41
2021/05/07 00:53:10;;;;;;;5.22;2.40;;;4.30;99.90;;;;;;5085978;28;20067;-41
2021/05/07 00:55:38;;;;;;;2.85;2.10;;;4.30;99.90;;;;;;5090013;28;20141;-41
2021/05/07 00:58:04;;;;;;;4.15;2.05;;;4.30;99.90;;;;;;5077954;28;20017;-41
2021/05/07 01:00:31;;;;;;;2.63;1.80;;;4.30;99.90;;;;;;5072365;28;20021;-43
2021/05/07 01:02:58;;;;;;;3.13;2.00;;;4.30;99.90;;;;;;5071961;28;20467;-43
2021/05/07 01:05:24;;;;;;;3.83;2.38;;;4.30;99.90;;;;;;5078427;28;20029;-41
2021/05/07 01:07:51;;;;;;;3.58;2.55;;;4.20;99.90;;;;;;5078824;28;20020;-45
2021/05/07 01:10:17;;;;;;;4.38;2.13;;;4.20;99.90;;;;;;5078041;28;20506;-41
2021/05/07 01:12:43;;;;;;;2.55;2.13;;;4.20;99.90;;;;;;5078807;28;20112;-41
2021/05/07 01:15:13;;;;;;;2.75;2.00;;;4.20;99.90;;;;;;5078893;28;20396;-42
2021/05/07 01:17:43;;;;;;;3.25;2.10;;;4.20;99.90;;;;;;5078823;28;20017;-42
2021/05/07 01:20:28;;;;;;;3.85;2.28;;;4.20;99.90;;;;;;5079102;28;20134;-44
2021/05/07 01:22:56;;;;;;;2.85;1.95;;;4.20;99.90;;;;;;5078802;28;20027;-45
2021/05/07 01:25:25;;;;;;;4.72;2.40;;;4.10;99.90;;;;;;5078015;28;20554;-44
2021/05/07 01:27:54;;;;;;;3.10;2.33;;;4.10;99.90;;;;;;5078546;28;20035;-43
2021/05/07 01:30:24;;;;;;;4.85;2.53;;;4.10;99.90;;;;;;5078907;28;20031;-43
2021/05/07 01:32:50;;;;;;;4.05;2.20;;;4.10;99.90;;;;;;5078554;28;20024;-44
2021/05/07 01:35:19;;;;;;;3.30;2.55;;;4.00;99.90;;;;;;5078887;28;20024;-42
2021/05/07 01:37:47;;;;;;;4.20;2.10;;;4.00;99.90;;;;;;5078473;28;20064;-41
2021/05/07 01:40:21;;;;;;;4.65;2.50;;;4.00;99.90;;;;;;5077900;28;20807;-42
2021/05/07 01:42:47;;;;;;;2.97;2.17;;;4.00;99.90;;;;;;5078595;28;20529;-42
2021/05/07 01:45:18;;;;;;;3.28;2.08;;;4.00;99.90;;;;;;5078739;28;20475;-42
2021/05/07 01:47:44;;;;;;;3.35;2.50;;;4.00;99.90;;;;;;5078752;28;20036;-40
2021/05/07 01:50:12;;;;;;;3.35;2.15;;;4.00;99.90;;;;;;5078821;28;20031;-41
2021/05/07 01:52:38;;;;;;;6.05;2.53;;;4.00;99.90;;;;;;5060246;28;20036;-41
2021/05/07 01:55:06;;;;;;;2.65;1.80;;;4.00;99.90;;;;;;5057597;28;20099;-42
2021/05/07 01:57:34;;;;;;;2.70;2.20;;;4.00;99.90;;;;;;5058940;28;20021;-41
2021/05/07 01:59:59;;;;;;;2.90;1.95;;;4.00;99.90;;;;;;5058504;28;20021;-41
2021/05/07 02:02:25;;;;;;;2.60;2.10;;;4.00;99.90;;;;;;5058544;28;20032;-41
2021/05/07 02:04:50;;;;;;;4.90;2.38;;;4.00;99.90;;;;;;5058482;28;20101;-41
2021/05/07 02:07:16;;;;;;;2.50;2.30;;;4.00;99.90;;;;;;5058609;28;20036;-42
2021/05/07 02:09:42;;;;;;;2.42;2.00;;;4.00;99.90;;;;;;5063936;28;20028;-40
2021/05/07 02:12:08;;;;;;;3.83;2.30;;;4.00;99.90;;;;;;5077585;28;20464;-41
2021/05/07 02:14:33;;;;;;;3.78;3.38;;;4.00;99.90;;;;;;5078491;28;20097;-41
2021/05/07 02:17:00;;;;;;;7.55;2.92;;;4.00;99.90;;;;;;5074598;28;20105;-43
2021/05/07 02:19:26;;;;;;;3.78;2.50;;;3.90;99.90;;;;;;5075499;28;20553;-41
2021/05/07 02:21:52;;;;;;;3.10;2.05;;;3.90;99.90;;;;;;5075155;28;20117;-42
2021/05/07 02:24:17;;;;;;;4.40;2.47;;;3.90;99.90;;;;;;5073813;28;20111;-41
2021/05/07 02:26:43;;;;;;;3.97;2.35;;;3.90;99.90;;;;;;5074132;28;20055;-42
2021/05/07 02:29:08;;;;;;;3.78;2.90;;;3.90;99.90;;;;;;5075050;28;20092;-41
2021/05/07 02:31:34;;;;;;;4.22;2.45;;;3.90;99.90;;;;;;5074957;28;20045;-41
2021/05/07 02:34:00;;;;;;;3.97;2.35;;;3.90;99.90;;;;;;5074845;28;20029;-41
2021/05/07 02:36:25;;;;;;;4.28;2.20;;;3.90;99.90;;;;;;5075113;28;20043;-41
2021/05/07 02:38:51;;;;;;;4.03;2.70;;;3.90;99.90;;;;;;5074411;28;20041;-41
2021/05/07 02:41:16;;;;;;;4.15;2.33;;;3.90;99.90;;;;;;5074053;28;20020;-41
2021/05/07 02:43:42;;;;;;;4.38;2.60;;;3.90;99.90;;;;;;5074739;28;20041;-41
2021/05/07 02:46:07;;;;;;;2.92;2.58;;;3.90;99.90;;;;;;5074741;28;20113;-41
2021/05/07 02:48:33;;;;;;;2.95;2.42;;;3.90;99.90;;;;;;5074371;28;20357;-41
2021/05/07 02:50:58;;;;;;;3.72;2.70;;;3.90;99.90;;;;;;5070017;28;20055;-41
2021/05/07 02:53:24;;;;;;;5.55;2.75;;;4.00;99.90;;;;;;5054512;28;20473;-40
2021/05/07 02:55:50;;;;;;;2.20;1.85;;;3.90;99.90;;;;;;5053467;28;20033;-41
2021/05/07 02:58:15;;;;;;;2.55;2.28;;;3.90;99.90;;;;;;5054597;28;20028;-41
2021/05/07 03:00:41;;;;;;;4.63;2.70;;;4.00;99.90;;;;;;5054427;28;20036;-42
2021/05/07 03:03:06;;;;;;;2.72;2.50;;;4.00;99.90;;;;;;5054254;28;20025;-41
2021/05/07 03:05:32;;;;;;;4.20;2.55;;;4.00;99.90;;;;;;5054378;28;20025;-42
2021/05/07 03:07:57;;;;;;;2.95;2.38;;;4.00;99.90;;;;;;5054197;28;20029;-41
2021/05/07 03:10:23;;;;;;;5.63;3.00;;;4.00;99.90;;;;;;5064668;28;20031;-40
2021/05/07 03:12:48;;;;;;;4.80;2.75;;;4.00;99.90;;;;;;5074163;28;20029;-42
2021/05/07 03:15:16;;;;;;;3.30;2.53;;;4.00;99.90;;;;;;5074145;28;20020;-41
2021/05/07 03:17:41;;;;;;;2.13;1.90;;;3.90;99.90;;;;;;5074086;28;20036;-43
2021/05/07 03:20:08;;;;;;;5.30;2.67;;;3.90;99.90;;;;;;5073985;28;20027;-41
2021/05/07 03:22:34;;;;;;;5.18;2.63;;;3.90;99.90;;;;;;5074025;28;20417;-42
2021/05/07 03:24:59;;;;;;;5.35;3.60;;;3.90;99.90;;;;;;5073023;28;20035;-41
2021/05/07 03:27:25;;;;;;;3.72;2.65;;;3.90;99.90;;;;;;5072971;28;20031;-43
2021/05/07 03:29:51;;;;;;;5.47;2.70;;;3.90;99.90;;;;;;5073817;28;20427;-42
2021/05/07 03:32:16;;;;;;;5.07;3.15;;;3.90;99.90;;;;;;5073739;28;20389;-42
2021/05/07 03:34:42;;;;;;;3.03;2.40;;;3.80;99.90;;;;;;5073793;28;20048;-41
2021/05/07 03:37:07;;;;;;;4.53;3.03;;;3.80;99.90;;;;;;5073572;28;20063;-41
2021/05/07 03:39:33;;;;;;;5.13;2.80;;;3.80;99.90;;;;;;5073581;28;20072;-41
2021/05/07 03:41:58;;;;;;;3.95;2.78;;;3.80;99.90;;;;;;5072931;28;20021;-40
2021/05/07 03:44:24;;;;;;;3.35;2.67;;;3.80;99.90;;;;;;5073629;28;20112;-41
2021/05/07 03:46:49;;;;;;;5.32;2.75;;;3.70;99.90;;;;;;5073483;28;20031;-41
2021/05/07 03:49:15;;;;;;;3.28;2.33;;;3.80;99.90;;;;;;5073458;28;20028;-41
2021/05/07 03:51:40;;;;;;;4.93;3.60;;;3.80;99.90;;;;;;5063002;28;20078;-41
2021/05/07 03:54:06;;;;;;;3.53;2.70;;;3.80;99.90;;;;;;5053208;28;20025;-41
2021/05/07 03:56:31;;;;;;;3.28;2.90;;;3.90;99.90;;;;;;5052695;28;20387;-41
2021/05/07 03:58:57;;;;;;;7.55;3.03;;;3.90;99.90;;;;;;5053262;28;20063;-41
2021/05/07 04:01:24;;;;;;;3.80;2.67;;;4.00;99.90;;;;;;5053345;28;20036;-42
2021/05/07 04:03:50;;;;;;;6.43;2.88;;;4.00;99.90;;;;;;5053225;28;20021;-42
2021/05/07 04:06:18;;;;;;;5.20;2.30;;;4.20;99.90;;;;;;5053116;28;20032;-44
2021/05/07 04:08:48;;;;;;;5.32;3.00;;;4.30;99.90;;;;;;5053093;28;20104;-42
2021/05/07 04:13:40;;;;;;;4.20;2.55;;;4.70;99.90;;;;;;5073131;28;20024;-43
2021/05/07 04:16:07;;;;;;;5.70;3.40;;;5.00;99.90;;;;;;5072864;28;20033;-43
2021/05/07 04:18:33;;;;;;;3.42;2.63;;;5.40;99.90;;;;;;5072925;28;20025;-41
2021/05/07 04:20:59;;;;;;;4.47;3.67;;;6.00;99.90;;;;;;5072709;28;20218;-41
2021/05/07 04:23:24;;;;;;;8.45;3.40;;;6.70;99.90;;;;;;5072971;28;20407;-41
2021/05/07 04:25:51;;;;;;;4.13;3.25;;;7.30;99.90;;;;;;5070510;28;20529;-41
2021/05/07 04:28:16;;;;;;;5.85;3.42;;;7.30;99.90;;;;;;5072861;28;20032;-43
2021/05/07 04:30:42;;;;;;;4.57;3.92;;;7.10;99.90;;;;;;5072895;28;20086;-41
2021/05/07 04:33:08;;;;;;;3.80;3.17;;;7.00;99.90;;;;;;5072546;28;20025;-42
2021/05/07 04:35:33;;;;;;;3.92;3.05;;;6.90;99.90;;;;;;5072453;28;20361;-42
2021/05/07 04:37:59;;;;;;;6.38;3.25;;;6.80;99.90;;;;;;5072467;28;20051;-42
2021/05/07 04:40:24;;;;;;;3.40;2.97;;;6.80;99.90;;;;;;5071482;28;20024;-41
2021/05/07 04:42:50;;;;;;;4.50;3.20;;;6.80;99.90;;;;;;5072769;28;20025;-46
2021/05/07 04:45:15;;;;;;;3.17;2.63;;;6.80;99.90;;;;;;5070349;28;20592;-49
2021/05/07 04:47:41;;;;;;;3.00;2.67;;;6.90;99.90;;;;;;5071717;28;20047;-42
2021/05/07 04:50:08;;;;;;;4.75;2.85;;;7.10;99.90;;;;;;5072070;28;20352;-43
2021/05/07 04:52:34;;;;;;;3.78;2.80;;;7.40;99.90;;;;;;5054632;28;20060;-41
2021/05/07 04:55:00;;;;;;;3.67;2.50;;;7.70;99.90;;;;;;5051256;28;20025;-42
2021/05/07 04:57:28;;;;;;;5.40;2.92;;;8.00;99.90;;;;;;5052602;28;20499;-42
2021/05/07 04:59:54;;;;;;;3.15;2.50;;;8.20;99.90;;;;;;5052379;28;20025;-44
2021/05/07 05:02:21;;;;;;;3.25;2.70;;;8.40;99.90;;;;;;5052348;28;20052;-42
2021/05/07 05:04:46;;;;;;;4.78;2.65;;;8.60;99.90;;;;;;5052106;28;20114;-42
2021/05/07 05:07:12;;;;;;;4.88;2.40;;;8.80;99.90;;;;;;5052349;28;20052;-43
2021/05/07 05:09:37;;;;;;;3.50;2.65;;;8.90;99.90;;;;;;5057385;28;20037;-41
2021/05/07 05:12:03;;;;;;;5.90;2.95;;;9.10;99.90;;;;;;5071322;28;20024;-43
2021/05/07 05:14:28;;;;;;;4.30;2.60;;;9.20;99.90;;;;;;5071043;28;20025;-42
2021/05/07 05:16:54;;;;;;;2.95;2.42;;;9.50;99.90;;;;;;5072454;28;20021;-41
2021/05/07 05:19:19;;;;;;;5.05;2.88;;;10.10;99.90;;;;;;5072182;28;20121;-42
2021/05/07 05:21:45;;;;;;;3.85;2.78;;;10.70;99.90;;;;;;5072011;28;20029;-42
2021/05/07 05:24:11;;;;;;;3.28;2.70;;;11.50;98.90;;;;;;5072224;28;20070;-42
2021/05/07 05:26:36;;;;;;;3.28;2.33;;;12.20;96.50;;;;;;5071182;28;20414;-42
2021/05/07 05:29:02;;;;;;;4.53;3.33;;;12.70;94.30;;;;;;5069611;28;20032;-42
2021/05/07 05:31:28;;;;;;;4.00;2.83;;;12.90;93.10;;;;;;5071965;28;20120;-42
2021/05/07 05:33:53;;;;;;;5.40;3.20;;;12.60;92.40;;;;;;5071995;28;20060;-42
2021/05/07 05:36:19;;;;;;;4.25;2.17;;;12.30;93.10;;;;;;5071861;28;20067;-42
2021/05/07 05:38:44;;;;;;;4.60;3.45;;;11.80;93.40;;;;;;5072115;28;20041;-43
2021/05/07 05:41:10;;;;;;;3.80;2.67;;;11.60;94.40;;;;;;5071070;28;20028;-41
2021/05/07 05:43:35;;;;;;;3.70;2.97;;;11.30;94.70;;;;;;5072133;28;20023;-42
2021/05/07 05:46:01;;;;;;;4.55;3.20;;;11.00;94.80;;;;;;5071892;28;20039;-43
2021/05/07 05:48:26;;;;;;;3.42;3.08;;;10.80;95.00;;;;;;5071920;28;20043;-44
2021/05/07 05:50:53;;;;;;;5.13;3.42;;;10.50;95.60;;;;;;5068744;28;20102;-43
2021/05/07 05:53:19;;;;;;;3.90;3.17;;;10.30;96.10;;;;;;5055664;28;20029;-42
2021/05/07 05:55:45;;;;;;;4.95;4.15;;;10.10;96.40;;;;;;5054767;28;20060;-46
2021/05/07 05:58:11;;;;;;;6.22;3.88;;;10.00;96.70;;;;;;5056383;28;20049;-43
2021/05/07 06:00:38;;;;;;;5.18;3.97;;;9.80;96.70;;;;;;5055484;28;20071;-41
2021/05/07 06:03:04;;;;;;;5.97;3.95;;;9.50;96.00;;;;;;5055286;28;20083;-43
2021/05/07 06:05:30;;;;;;;7.55;4.50;;;9.40;96.20;;;;;;5055237;28;20033;-43
2021/05/07 06:07:56;;;;;;;6.38;3.38;;;9.20;94.50;;;;;;5222254;22;20048;-45
2021/05/07 06:10:22;;;;;;;5.40;3.58;;;9.10;94.40;;;;;;5074184;28;20418;-42
2021/05/07 06:12:49;;;;;;;5.00;3.50;;;8.90;93.70;;;;;;5075127;28;20028;-46
2021/05/07 06:15:16;;;;;;;5.47;2.75;;;8.80;93.70;;;;;;5075251;28;20025;-41
2021/05/07 06:17:43;;;;;;;4.85;3.60;;;8.70;93.50;;;;;;5075253;28;20507;-42
2021/05/07 06:20:10;;;;;;;10.18;3.47;;;8.60;93.00;;;;;;5075051;28;20537;-43
2021/05/07 06:22:36;;;;;;;5.88;3.65;;;8.50;93.10;;;;;;5074979;28;20422;-42
2021/05/07 06:25:06;;;;;;;8.05;3.63;;;8.40;93.30;;;;;;5074234;28;20157;-44
2021/05/07 06:27:31;;;;;;;5.30;3.33;;;8.30;93.10;;;;;;5075125;28;20077;-47
2021/05/07 06:29:56;;;;;;;6.53;3.20;;;8.30;93.10;;;;;;5075239;28;20099;-48
2021/05/07 06:32:22;;;;;;;7.32;3.75;;;8.40;93.10;;;;;;5074600;28;20039;-41
2021/05/07 06:34:47;;;;;;;5.95;3.28;;;8.50;92.50;;;;;;5074964;28;20020;-44
2021/05/07 06:37:13;;;;;;;5.15;3.17;;;8.60;92.50;;;;;;5074514;28;20130;-43
2021/05/07 06:39:38;;;;;;;5.78;3.03;;;8.70;92.40;;;;;;5074916;28;20107;-42
2021/05/07 06:42:05;;;;;;;4.20;3.08;;;8.80;92.20;;;;;;5073970;28;20067;-46
2021/05/07 06:44:30;;;;;;;5.65;3.53;;;8.80;91.60;;;;;;5074868;28;20383;-43
2021/05/07 06:46:56;;;;;;;5.45;2.83;;;8.80;91.90;;;;;;5074492;28;20025;-42
2021/05/07 06:49:23;;;;;;;4.43;3.35;;;8.80;92.20;;;;;;5074682;28;20067;-45
2021/05/07 06:51:50;;;;;;;5.60;2.90;;;8.80;91.20;;;;;;5086064;28;20024;-44
2021/05/07 06:54:15;;;;;;;6.85;2.92;;;8.80;91.60;;;;;;5094887;28;20028;-46
2021/05/07 06:56:41;;;;;;;6.68;3.03;;;8.90;91.40;;;;;;5093879;28;20024;-43
2021/05/07 06:59:07;;;;;;;6.13;2.80;;;8.90;90.80;;;;;;5094644;28;20027;-45
2021/05/07 07:01:36;;;;;;;7.55;2.97;;;8.90;91.00;;;;;;5094362;28;20073;-48
2021/05/07 07:04:03;;;;;;;4.82;2.95;;;8.90;91.00;;;;;;5094814;28;20417;-47
2021/05/07 07:06:28;;;;;;;2.97;2.33;;;8.90;91.00;;;;;;5094563;28;20020;-43
2021/05/07 07:08:54;;;;;;;3.53;2.33;;;8.90;90.80;;;;;;5094369;28;20040;-41
2021/05/07 07:11:19;;;;;;;4.70;2.40;;;8.80;90.80;;;;;;5073849;28;20054;-45
2021/05/07 07:13:45;;;;;;;2.55;1.95;;;8.80;90.90;;;;;;5074288;28;20029;-42
2021/05/07 07:16:11;;;;;;;5.00;2.30;;;8.70;90.80;;;;;;5074055;28;20047;-48
2021/05/07 07:18:37;;;;;;;3.45;2.35;;;8.60;91.20;;;;;;5074266;28;20024;-45
2021/05/07 07:21:03;;;;;;;4.20;2.10;;;8.50;91.10;;;;;;5074135;28;20032;-43
2021/05/07 07:23:28;;;;;;;2.20;2.00;;;8.40;91.40;;;;;;5073843;28;20024;-43
2021/05/07 07:25:53;;;;;;;3.83;1.75;;;8.30;91.70;;;;;;5073011;28;20119;-47
2021/05/07 07:28:19;;;;;;;3.97;2.10;;;8.20;92.10;;;;;;5073923;28;20047;-46
2021/05/07 07:30:45;;;;;;;4.05;1.83;;;8.20;92.30;;;;;;5073806;28;20499;-44
2021/05/07 07:33:11;;;;;;;3.00;1.90;;;8.20;92.80;;;;;;5073837;28;20036;-47
2021/05/07 07:35:36;;;;;;;2.50;1.70;;;8.10;92.60;;;;;;5073693;28;20033;-47
2021/05/07 07:38:02;;;;;;;3.55;1.77;;;8.10;92.90;;;;;;5073742;28;20379;-43
2021/05/07 07:40:28;;;;;;;2.80;1.80;;;8.00;93.10;;;;;;5072774;28;20021;-48
2021/05/07 07:42:53;;;;;;;3.90;1.67;;;8.00;93.20;;;;;;5073788;28;20021;-42
2021/05/07 07:45:19;;;;;;;4.20;1.90;;;8.00;93.70;;;;;;5073501;28;20025;-45
2021/05/07 07:47:44;;;;;;;3.22;1.65;;;7.90;93.70;;;;;;5073532;28;20036;-43
2021/05/07 07:50:10;;;;;;;1.77;1.45;;;7.80;94.10;;;;;;5073677;28;20090;-44
2021/05/07 07:52:37;;;;;;;3.25;1.50;;;7.70;93.80;;;;;;5091534;28;20203;-44
2021/05/07 07:55:04;;;;;;;2.97;1.52;;;7.70;94.40;;;;;;5092736;28;20025;-43
2021/05/07 07:57:30;;;;;;;2.17;1.50;;;7.60;94.40;;;;;;5092272;28;20395;-47
2021/05/07 07:59:56;;;;;;;4.20;1.60;;;7.50;94.70;;;;;;5093483;28;20024;-42
2021/05/07 08:02:22;;;;;;;2.78;1.35;;;7.50;95.30;;;;;;5093102;28;20700;-46
2021/05/07 08:04:47;;;;;;;3.03;1.60;;;7.40;95.30;;;;;;5093671;28;20020;-42
2021/05/07 08:07:13;;;;;;;4.40;2.10;;;7.30;95.60;;;;;;5093325;28;20028;-43
2021/05/07 08:09:40;;;;;;;4.43;2.00;;;7.20;96.50;;;;;;5087390;28;20482;-43
2021/05/07 08:12:07;;;;;;;6.30;2.00;;;7.00;96.90;;;;;;5072630;28;20040;-45
2021/05/07 08:14:33;;;;;;;4.05;2.17;;;6.80;97.60;;;;;;5072340;28;20078;-47
2021/05/07 08:16:59;;;;;;;4.72;2.00;;;6.70;98.60;;;;;;5073021;28;20024;-42
2021/05/07 08:19:25;;;;;;;4.85;1.83;;;6.70;99.90;;;;;;5073011;28;20028;-44
2021/05/07 08:21:51;;;;;;;6.80;2.58;;;6.70;99.90;;;;;;5071681;28;20135;-45
2021/05/07 08:24:17;;;;;;;5.15;2.38;;;6.60;99.90;;;;;;5072817;28;20032;-45
2021/05/07 08:26:42;;;;;;;4.25;2.40;;;6.60;99.90;;;;;;5071845;28;20383;-44
2021/05/07 08:29:08;;;;;;;5.25;2.00;;;6.50;99.90;;;;;;5073101;28;20024;-41
2021/05/07 08:31:33;;;;;;;6.90;2.65;;;6.60;99.90;;;;;;5072563;28;20028;-42
2021/05/07 08:33:59;;;;;;;4.05;2.00;;;6.60;99.90;;;;;;5072856;28;20024;-45
2021/05/07 08:36:25;;;;;;;5.10;2.60;;;6.60;99.90;;;;;;5072742;28;20387;-43
2021/05/07 08:38:51;;;;;;;7.05;3.45;;;6.60;99.90;;;;;;5072885;28;20021;-42
2021/05/07 08:41:17;;;;;;;7.03;2.90;;;6.60;99.90;;;;;;5071872;28;20155;-41
2021/05/07 08:43:42;;;;;;;2.90;1.50;;;6.60;99.90;;;;;;5072644;28;20027;-49
2021/05/07 08:46:10;;;;;;;6.90;3.10;;;6.60;99.90;;;;;;5072648;28;20028;-43
2021/05/07 08:48:38;;;;;;;8.30;3.08;;;6.50;99.90;;;;;;5072595;28;20391;-42
2021/05/07 08:51:04;;;;;;;6.65;2.53;;;6.50;99.90;;;;;;5077778;28;20058;-42
2021/05/07 08:53:30;;;;;;;7.70;2.70;;;6.40;99.90;;;;;;5092727;28;20106;-42
2021/05/07 08:55:56;;;;;;;4.53;2.70;;;6.30;99.90;;;;;;5091659;28;20111;-42
2021/05/07 08:58:21;;;;;;;3.72;1.92;;;6.30;99.90;;;;;;5092545;28;20339;-43
2021/05/07 09:00:48;;;;;;;4.75;2.50;;;6.20;99.90;;;;;;5092803;28;20095;-45
2021/05/07 09:03:15;;;;;;;4.95;2.38;;;6.30;99.90;;;;;;5092651;28;20383;-42
2021/05/07 09:05:40;;;;;;;5.10;2.05;;;6.20;99.90;;;;;;5091426;28;20024;-41
2021/05/07 09:08:08;;;;;;;6.55;2.10;;;6.20;99.90;;;;;;5092465;28;20051;-41
2021/05/07 09:10:41;;;;;;;5.43;1.98;;;6.20;99.90;;;;;;5078637;28;20032;-42
2021/05/07 09:13:09;;;;;;;4.32;1.85;;;6.30;99.90;;;;;;5072040;28;20080;-41
2021/05/07 09:15:38;;;;;;;3.20;1.35;;;6.30;99.90;;;;;;5072454;28;20051;-44
2021/05/07 09:18:04;;;;;;;4.55;1.45;;;6.30;99.90;;;;;;5075898;28;20017;-44
2021/05/07 09:20:41;;;;;;;4.75;1.85;;;6.30;99.90;;;;;;5076352;28;20021;-43
2021/05/07 09:23:12;;;;;;;3.72;1.75;;;6.30;99.90;;;;;;5072314;28;20094;-42
2021/05/07 09:25:40;;;;;;;4.75;1.30;;;6.30;99.90;;;;;;5073300;28;20512;-43
2021/05/07 09:28:07;;;;;;;5.70;1.70;;;6.30;99.90;;;;;;5076248;28;20044;-45
2021/05/07 09:30:32;;;;;;;4.63;1.70;;;6.30;99.90;;;;;;5076310;28;20029;-43
2021/05/07 09:32:58;;;;;;;5.03;1.80;;;6.30;99.90;;;;;;5076164;28;20031;-45
2021/05/07 09:35:29;;;;;;;3.63;1.73;;;6.30;99.90;;;;;;5076332;28;20024;-41
2021/05/07 09:38:00;;;;;;;4.50;1.67;;;6.20;99.90;;;;;;5076017;28;20013;-41
2021/05/07 09:40:26;;;;;;;4.07;1.52;;;6.30;99.90;;;;;;5074957;28;20025;-43
2021/05/07 09:43:15;;;;;;;3.30;1.50;;;6.20;99.90;;;;;;5075954;28;20128;-43
2021/05/07 09:45:42;;;;;;;4.30;1.50;;;6.20;99.90;;;;;;5075983;28;20541;-42
2021/05/07 09:48:16;;;;;;;3.58;1.60;;;6.30;99.90;;;;;;5075921;28;20450;-41
2021/05/07 09:50:42;;;;;;;4.65;1.30;;;6.20;99.90;;;;;;5077936;28;20483;-42
2021/05/07 09:53:21;;;;;;;2.10;1.08;;;6.20;99.90;;;;;;5096010;28;20358;-41
2021/05/07 09:55:52;;;;;;;2.47;1.55;;;6.20;99.90;;;;;;5095041;28;20418;-45
2021/05/07 09:58:18;;;;;;;2.90;1.20;;;6.20;99.90;;;;;;5096012;28;20017;-41
2021/05/07 10:00:44;;;;;;;4.63;1.27;;;6.20;99.90;;;;;;5095882;28;20441;-41
2021/05/07 10:03:10;;;;;;;3.53;1.05;;;6.20;99.90;;;;;;5095751;28;20164;-45
2021/05/07 10:05:36;;;;;;;2.33;1.00;;;6.20;99.90;;;;;;5095902;28;20107;-42
2021/05/07 10:08:03;;;;;;;2.42;1.10;;;6.10;99.90;;;;;;5094354;28;20402;-42
2021/05/07 10:10:38;;;;;;;2.15;1.00;;;6.10;99.90;;;;;;5082316;28;20062;-42
2021/05/07 10:13:05;;;;;;;0.68;0.50;;;6.00;99.90;;;;;;5075236;28;20040;-41
2021/05/07 10:15:37;;;;;;;1.88;0.73;;;5.90;99.90;;;;;;5075302;28;20024;-42
2021/05/07 10:18:07;;;;;;;1.10;0.60;;;5.80;99.90;;;;;;5075307;28;20493;-43
2021/05/07 10:20:35;;;;;;;0.52;0.52;;;5.70;99.90;;;;;;5075309;28;20013;-43
2021/05/07 10:23:16;;;;;;;1.92;0.80;;;5.60;99.90;;;;;;5075230;28;20029;-42
2021/05/07 10:25:56;;;;;;;2.20;0.77;;;5.60;99.90;;;;;;5074234;28;20052;-43
2021/05/07 10:28:22;;;;;;;1.05;0.60;;;5.50;99.90;;;;;;5074962;28;20032;-42
2021/05/07 10:30:47;;;;;;;0.93;0.70;;;5.40;99.90;;;;;;5075166;28;20031;-41
2021/05/07 10:33:20;;;;;;;0.80;0.65;;;5.30;99.90;;;;;;5074956;28;20035;-41
2021/05/07 10:35:55;;;;;;;1.42;0.60;;;5.20;99.90;;;;;;5074889;28;20024;-41
2021/05/07 10:38:22;;;;;;;0.80;0.60;;;5.10;99.90;;;;;;5074417;28;20145;-42
2021/05/07 10:41:05;;;;;;;1.55;0.60;;;5.10;99.90;;;;;;5074047;28;20556;-42
2021/05/07 10:43:37;;;;;;;0.65;0.60;;;5.00;99.90;;;;;;5074693;28;20424;-42
2021/05/07 10:46:03;;;;;;;0.82;0.60;;;5.00;99.90;;;;;;5075042;28;20028;-41
2021/05/07 10:48:28;;;;;;;2.58;0.68;;;5.00;99.90;;;;;;5074739;28;20179;-41
2021/05/07 10:51:02;;;;;;;1.98;0.73;;;5.00;99.90;;;;;;5073228;28;20043;-42
2021/05/07 10:53:29;;;;;;;0.82;0.75;;;5.10;99.90;;;;;;5061998;28;20025;-44
2021/05/07 10:55:56;;;;;;;0.93;0.60;;;5.20;99.90;;;;;;5082459;28;20028;-45
2021/05/07 10:58:31;;;;;;;2.10;0.88;;;5.30;99.90;;;;;;5079921;28;20043;-42
2021/05/07 11:00:57;;;;;;;1.17;0.90;;;5.30;99.90;;;;;;5066941;28;20027;-44
2021/05/07 11:03:23;;;;;;;1.75;1.15;;;5.50;99.90;;;;;;5093009;28;20024;-42
2021/05/07 11:05:50;;;;;;;2.40;1.20;;;5.70;99.90;;;;;;5092488;28;20477;-42
2021/05/07 11:08:16;;;;;;;1.75;1.10;;;6.00;99.90;;;;;;5087084;28;20167;-42
2021/05/07 11:10:42;;;;;;;1.98;1.23;;;6.40;99.90;;;;;;5075746;28;20039;-45
2021/05/07 11:13:10;;;;;;;1.20;1.10;;;6.70;99.90;;;;;;5092493;28;20160;-44
2021/05/07 11:15:36;;;;;;;1.17;1.00;;;6.90;99.90;;;;;;5092727;28;20478;-44
2021/05/07 11:18:09;;;;;;;1.25;1.15;;;7.30;99.90;;;;;;5092699;28;20114;-42
2021/05/07 11:20:40;;;;;;;2.10;1.27;;;7.70;99.80;;;;;;5092848;28;20020;-43
2021/05/07 11:23:11;;;;;;;1.10;0.90;;;8.00;98.90;;;;;;5092494;28;20063;-44
2021/05/07 11:25:38;;;;;;;2.90;1.17;;;8.40;98.50;;;;;;5083807;28;20025;-44
2021/05/07 11:28:11;;;;;;;2.40;1.08;;;8.70;97.80;;;;;;5072141;28;20077;-43
2021/05/07 11:30:53;;;;;;;1.27;1.10;;;9.10;97.20;;;;;;5072223;28;20028;-45
2021/05/07 11:33:22;;;;;;;2.00;1.33;;;9.50;96.60;;;;;;5072068;28;20041;-42
2021/05/07 11:36:11;;;;;;;0.85;0.82;;;9.80;96.40;;;;;;5072009;28;20089;-42
2021/05/07 11:38:39;;;;;;;0.65;0.65;;;10.10;95.10;;;;;;5071912;28;20021;-44
2021/05/07 11:41:25;;;;;;;4.15;0.90;;;10.30;94.90;;;;;;5069897;28;20027;-42
2021/05/07 11:43:52;;;;;;;1.67;1.30;;;10.70;94.70;;;;;;5071824;28;20032;-46
2021/05/07 11:46:19;;;;;;;1.83;0.80;;;11.00;94.00;;;;;;5071903;28;20039;-42
2021/05/07 11:48:46;;;;;;;1.77;0.77;;;11.30;93.80;;;;;;5070702;28;20478;-43
2021/05/07 11:51:12;;;;;;;1.10;0.70;;;11.60;93.60;;;;;;5069486;28;20068;-42
2021/05/07 11:53:38;;;;;;;0.75;0.70;;;11.70;92.80;;;;;;5062114;28;20025;-43
2021/05/07 11:56:04;;;;;;;3.17;0.63;;;11.90;92.10;;;;;;5070820;28;20024;-42
2021/05/07 11:58:35;;;;;;;1.88;1.08;;;12.00;91.00;;;;;;5066246;28;20432;-44
2021/05/07 12:01:04;;;;;;;1.25;0.73;;;12.00;90.50;;;;;;5070616;28;20017;-43
2021/05/07 12:03:43;;;;;;;2.58;0.80;;;12.10;90.50;;;;;;5075186;28;20028;-44
2021/05/07 12:06:17;;;;;;;2.90;0.95;;;12.40;90.30;;;;;;5092203;28;20034;-44
2021/05/07 12:08:43;;;;;;;0.65;0.63;;;12.60;89.80;;;;;;5091987;28;20047;-44
2021/05/07 12:11:12;;;;;;;1.77;0.90;;;12.70;88.50;;;;;;5072793;28;20426;-43
2021/05/07 12:13:38;;;;;;;3.30;1.00;;;12.80;86.70;;;;;;5058665;28;20063;-43
2021/05/07 12:16:04;;;;;;;2.17;0.70;;;13.00;86.20;;;;;;5084793;28;20097;-47
2021/05/07 12:18:33;;;;;;;1.65;0.82;;;12.90;85.50;;;;;;5079556;28;20025;-42
2021/05/07 12:21:00;;;;;;;1.15;0.88;;;12.70;85.60;;;;;;5064436;28;20519;-42
2021/05/07 12:23:38;;;;;;;3.08;1.00;;;12.60;86.10;;;;;;5071781;28;20036;-43
2021/05/07 12:26:04;;;;;;;2.45;0.82;;;12.60;84.70;;;;;;5070950;28;20035;-43
2021/05/07 12:28:29;;;;;;;1.23;0.80;;;12.50;83.50;;;;;;5071819;28;20384;-42
2021/05/07 12:30:57;;;;;;;2.72;0.93;;;12.60;83.80;;;;;;5071588;28;20039;-44
2021/05/07 12:33:25;;;;;;;0.80;0.73;;;12.50;84.20;;;;;;5071406;28;20042;-44
2021/05/07 12:35:55;;;;;;;1.58;0.80;;;12.40;82.80;;;;;;5071698;28;20036;-43
2021/05/07 12:38:24;;;;;;;3.53;0.93;;;12.30;81.90;;;;;;5071627;28;20025;-43
2021/05/07 12:40:53;;;;;;;2.22;0.80;;;12.40;82.30;;;;;;5070595;28;20044;-43
2021/05/07 12:43:19;;;;;;;2.20;0.88;;;12.50;82.10;;;;;;5085264;28;20039;-43
2021/05/07 12:45:47;;;;;;;2.05;0.82;;;12.70;81.60;;;;;;5082791;28;20044;-44
2021/05/07 12:48:13;;;;;;;1.73;0.98;;;12.70;81.00;;;;;;5091630;28;20359;-42
2021/05/07 12:50:39;;;;;;;2.15;1.05;;;12.70;79.70;;;;;;5091473;28;20475;-43
2021/05/07 12:53:09;;;;;;;1.92;1.00;;;12.90;79.40;;;;;;5073144;28;20119;-44
2021/05/07 12:55:36;;;;;;;2.45;0.88;;;13.00;78.00;;;;;;5070660;28;20021;-44
2021/05/07 12:58:02;;;;;;;2.15;1.00;;;12.90;78.70;;;;;;5071300;28;20539;-42